Nearby METAR Reports

 

KAVP - Avoca/Wilkes B., Pennsylvania, USA
Distance from station: N 16mi, 25km
Updated: 08/18/2018 3:54pm
Overcast
Overcast
 Wind from NW
Wind: NW 8 mph , 13 km/h
Temperature: 75°F , 24°C
Dew Point: 68°F , 20°C
Humidity: 78%
Barometer: 29.85 inHg , 1010.8 hPa
Clouds: Overcast
Visibility: 10 miles , 16 km
Cloud details: Mostly cloudy 2100 ft
Mostly cloudy 2900 ft
Overcast 3400 ft
2018/08/18 19:54 KAVP 181954Z 32007KT 10SM BKN021 BKN029 OVC034 24/20 A2985 RMK AO2 RAE20 SLP098 P0000 T02390200
KMPO - Mt. Pocono, Pennsylvania, USA
Distance from station: E 20mi, 33km
Updated: 08/18/2018 4:14pm
Mostly cloudy
Mostly cloudy
 Wind from WNW
Wind: WNW 12 mph , 19 km/h
Temperature: 72°F , 22°C
Dew Point: 70°F , 21°C
Humidity: 94%
Barometer: 29.87 inHg , 1011.5 hPa
Clouds: Mostly cloudy
Visibility: 10 miles , 16 km
Cloud details: Few Clouds 900 ft
Partly cloudy 4700 ft
Mostly cloudy 9000 ft
2018/08/18 20:14 KMPO 182014Z AUTO 30010KT 10SM FEW009 SCT047 BKN090 22/21 A2987 RMK AO2 T02220206
 
KABE - Allentown, Pennsylvania, USA
Distance from station: SSE 36mi, 58km
Updated: 08/18/2018 3:51pm
Clear
Clear
 Wind from WSW
Wind: WSW 14 mph , 22 km/h
Temperature: 86°F , 30°C
Heat Index: 91°F , 33°C
Dew Point: 70°F , 21°C
Humidity: 59%
Barometer: 29.79 inHg , 1008.8 hPa
Clouds: Clear
Visibility: 10 miles , 16 km
2018/08/18 19:51 KABE 181951Z 25012KT 10SM CLR 30/21 A2979 RMK AO2 SLP084 T03000211
KXLL - Allentown Queen, Pennsylvania, USA
Distance from station: SSE 41mi, 65km
Updated: 08/18/2018 4:15pm
Partly cloudy
Partly cloudy
 Wind from WSW
Wind: WSW 9 mph , 15 km/h
Temperature: 82°F , 28°C
Heat Index: 86°F , 30°C
Dew Point: 70°F , 21°C
Humidity: 66%
Barometer: 29.81 inHg , 1009.5 hPa
Clouds: Partly cloudy
Visibility: 10 miles , 16 km
Cloud details: Partly cloudy 3600 ft
Partly cloudy 4300 ft
Partly cloudy 7000 ft
2018/08/18 20:15 KXLL 182015Z AUTO 25008KT 10SM SCT036 SCT043 SCT070 28/21 A2981 RMK AO2